sensor_id;sensor_type;location;lat;lon;timestamp;temperature;humidity
22416;DHT22;12204;50.600;4.608;2024-01-30T00:04:06;21.40;75.40
22416;DHT22;12204;50.600;4.608;2024-01-30T00:09:09;21.40;74.60
22416;DHT22;12204;50.600;4.608;2024-01-30T00:14:15;21.40;75.20
22416;DHT22;12204;50.600;4.608;2024-01-30T00:19:18;21.40;75.00
22416;DHT22;12204;50.600;4.608;2024-01-30T00:24:22;21.40;75.10
22416;DHT22;12204;50.600;4.608;2024-01-30T00:29:27;21.40;75.20
22416;DHT22;12204;50.600;4.608;2024-01-30T00:34:33;21.40;75.20
22416;DHT22;12204;50.600;4.608;2024-01-30T00:39:36;21.40;75.20
22416;DHT22;12204;50.600;4.608;2024-01-30T00:44:41;21.30;75.30
22416;DHT22;12204;50.600;4.608;2024-01-30T00:49:45;21.30;75.40
22416;DHT22;12204;50.600;4.608;2024-01-30T00:54:49;21.40;75.50
22416;DHT22;12204;50.600;4.608;2024-01-30T00:59:54;21.30;75.60
22416;DHT22;12204;50.600;4.608;2024-01-30T01:04:57;21.30;75.90
22416;DHT22;12204;50.600;4.608;2024-01-30T01:10:01;21.30;75.90
22416;DHT22;12204;50.600;4.608;2024-01-30T01:15:08;21.30;76.10
22416;DHT22;12204;50.600;4.608;2024-01-30T01:20:13;21.30;76.00
22416;DHT22;12204;50.600;4.608;2024-01-30T01:25:16;21.30;76.00
22416;DHT22;12204;50.600;4.608;2024-01-30T01:30:22;21.30;75.90
22416;DHT22;12204;50.600;4.608;2024-01-30T01:35:25;21.30;76.00
22416;DHT22;12204;50.600;4.608;2024-01-30T01:40:29;21.30;76.40
22416;DHT22;12204;50.600;4.608;2024-01-30T01:45:34;21.30;76.20
22416;DHT22;12204;50.600;4.608;2024-01-30T01:50:38;21.30;76.30
22416;DHT22;12204;50.600;4.608;2024-01-30T01:55:42;21.30;76.30
22416;DHT22;12204;50.600;4.608;2024-01-30T02:00:48;21.30;76.30
22416;DHT22;12204;50.600;4.608;2024-01-30T02:05:52;21.30;76.30
22416;DHT22;12204;50.600;4.608;2024-01-30T02:10:56;21.30;76.30
22416;DHT22;12204;50.600;4.608;2024-01-30T02:16:01;21.30;76.30
22416;DHT22;12204;50.600;4.608;2024-01-30T02:21:06;21.30;76.40
22416;DHT22;12204;50.600;4.608;2024-01-30T02:26:09;21.30;76.30
22416;DHT22;12204;50.600;4.608;2024-01-30T02:31:13;21.30;76.30
22416;DHT22;12204;50.600;4.608;2024-01-30T02:36:18;21.30;76.90
22416;DHT22;12204;50.600;4.608;2024-01-30T02:41:22;21.40;77.20
22416;DHT22;12204;50.600;4.608;2024-01-30T02:46:25;21.40;77.20
22416;DHT22;12204;50.600;4.608;2024-01-30T02:51:30;21.50;76.50
22416;DHT22;12204;50.600;4.608;2024-01-30T02:56:34;21.50;76.30
22416;DHT22;12204;50.600;4.608;2024-01-30T03:01:43;21.60;75.80
22416;DHT22;12204;50.600;4.608;2024-01-30T03:06:48;21.60;75.70
22416;DHT22;12204;50.600;4.608;2024-01-30T03:11:52;21.60;75.70
22416;DHT22;12204;50.600;4.608;2024-01-30T03:16:55;21.60;75.80
22416;DHT22;12204;50.600;4.608;2024-01-30T03:22:00;21.60;75.90
22416;DHT22;12204;50.600;4.608;2024-01-30T03:27:03;21.60;75.90
22416;DHT22;12204;50.600;4.608;2024-01-30T03:32:07;21.60;76.00
22416;DHT22;12204;50.600;4.608;2024-01-30T03:37:12;21.50;76.10
22416;DHT22;12204;50.600;4.608;2024-01-30T03:42:15;21.50;76.30
22416;DHT22;12204;50.600;4.608;2024-01-30T03:47:18;21.50;76.40
22416;DHT22;12204;50.600;4.608;2024-01-30T03:52:23;21.50;76.30
22416;DHT22;12204;50.600;4.608;2024-01-30T03:57:27;21.50;76.30
22416;DHT22;12204;50.600;4.608;2024-01-30T04:02:31;21.50;76.30
22416;DHT22;12204;50.600;4.608;2024-01-30T04:07:35;21.50;76.00
22416;DHT22;12204;50.600;4.608;2024-01-30T04:12:39;21.50;75.90
22416;DHT22;12204;50.600;4.608;2024-01-30T04:17:42;21.50;76.10
22416;DHT22;12204;50.600;4.608;2024-01-30T04:22:47;21.50;76.10
22416;DHT22;12204;50.600;4.608;2024-01-30T04:27:51;21.40;75.90
22416;DHT22;12204;50.600;4.608;2024-01-30T04:32:54;21.50;76.00
22416;DHT22;12204;50.600;4.608;2024-01-30T04:37:59;21.40;75.90
22416;DHT22;12204;50.600;4.608;2024-01-30T04:43:03;21.40;76.00
22416;DHT22;12204;50.600;4.608;2024-01-30T04:48:07;21.40;76.00
22416;DHT22;12204;50.600;4.608;2024-01-30T04:53:12;21.40;76.10
22416;DHT22;12204;50.600;4.608;2024-01-30T04:58:15;21.40;76.00
22416;DHT22;12204;50.600;4.608;2024-01-30T05:03:19;21.40;76.20
22416;DHT22;12204;50.600;4.608;2024-01-30T05:08:25;21.40;76.00
22416;DHT22;12204;50.600;4.608;2024-01-30T05:13:29;21.40;76.00
22416;DHT22;12204;50.600;4.608;2024-01-30T05:18:32;21.40;76.10
22416;DHT22;12204;50.600;4.608;2024-01-30T05:23:37;21.40;76.60
22416;DHT22;12204;50.600;4.608;2024-01-30T05:28:41;21.30;76.10
22416;DHT22;12204;50.600;4.608;2024-01-30T05:33:46;21.30;76.50
22416;DHT22;12204;50.600;4.608;2024-01-30T05:38:51;21.30;75.80
22416;DHT22;12204;50.600;4.608;2024-01-30T05:43:54;21.20;75.30
22416;DHT22;12204;50.600;4.608;2024-01-30T05:48:58;21.20;75.20
22416;DHT22;12204;50.600;4.608;2024-01-30T05:54:03;21.20;75.00
22416;DHT22;12204;50.600;4.608;2024-01-30T05:59:06;21.20;75.00
22416;DHT22;12204;50.600;4.608;2024-01-30T06:04:09;21.10;74.80
22416;DHT22;12204;50.600;4.608;2024-01-30T06:09:14;21.10;74.90
22416;DHT22;12204;50.600;4.608;2024-01-30T06:14:18;21.20;75.20
22416;DHT22;12204;50.600;4.608;2024-01-30T06:19:21;21.10;75.60
22416;DHT22;12204;50.600;4.608;2024-01-30T06:24:26;21.10;75.30
22416;DHT22;12204;50.600;4.608;2024-01-30T06:29:30;21.10;75.20
22416;DHT22;12204;50.600;4.608;2024-01-30T06:34:33;21.10;75.10
22416;DHT22;12204;50.600;4.608;2024-01-30T06:39:39;21.10;75.00
22416;DHT22;12204;50.600;4.608;2024-01-30T06:44:42;21.10;74.40
22416;DHT22;12204;50.600;4.608;2024-01-30T06:49:46;21.10;74.20
22416;DHT22;12204;50.600;4.608;2024-01-30T06:54:51;21.10;73.90
22416;DHT22;12204;50.600;4.608;2024-01-30T06:59:57;21.10;73.40
22416;DHT22;12204;50.600;4.608;2024-01-30T07:05:00;21.00;72.30
22416;DHT22;12204;50.600;4.608;2024-01-30T07:10:07;21.00;71.60
22416;DHT22;12204;50.600;4.608;2024-01-30T07:15:11;21.10;71.70
22416;DHT22;12204;50.600;4.608;2024-01-30T07:20:18;21.00;71.80
22416;DHT22;12204;50.600;4.608;2024-01-30T07:25:24;21.00;72.00
22416;DHT22;12204;50.600;4.608;2024-01-30T07:30:29;21.00;72.10
22416;DHT22;12204;50.600;4.608;2024-01-30T07:35:32;21.00;72.30
22416;DHT22;12204;50.600;4.608;2024-01-30T07:40:37;20.90;72.40
22416;DHT22;12204;50.600;4.608;2024-01-30T07:45:40;20.90;72.50
22416;DHT22;12204;50.600;4.608;2024-01-30T07:50:44;20.90;72.60
22416;DHT22;12204;50.600;4.608;2024-01-30T07:55:49;20.90;72.90
22416;DHT22;12204;50.600;4.608;2024-01-30T08:00:52;20.90;73.00
22416;DHT22;12204;50.600;4.608;2024-01-30T08:05:58;20.90;73.00
22416;DHT22;12204;50.600;4.608;2024-01-30T08:11:03;20.90;73.20
22416;DHT22;12204;50.600;4.608;2024-01-30T08:16:07;20.90;73.10
22416;DHT22;12204;50.600;4.608;2024-01-30T08:21:15;20.90;73.20
22416;DHT22;12204;50.600;4.608;2024-01-30T08:26:20;20.90;73.10
22416;DHT22;12204;50.600;4.608;2024-01-30T08:31:24;20.80;73.20
22416;DHT22;12204;50.600;4.608;2024-01-30T08:36:28;20.90;73.30
22416;DHT22;12204;50.600;4.608;2024-01-30T08:41:33;20.90;73.40
22416;DHT22;12204;50.600;4.608;2024-01-30T08:46:36;20.90;73.30
22416;DHT22;12204;50.600;4.608;2024-01-30T08:51:40;20.90;73.40
22416;DHT22;12204;50.600;4.608;2024-01-30T08:56:45;20.90;73.40
22416;DHT22;12204;50.600;4.608;2024-01-30T09:01:49;20.80;73.40
22416;DHT22;12204;50.600;4.608;2024-01-30T09:07:08;20.80;73.40
22416;DHT22;12204;50.600;4.608;2024-01-30T09:12:14;20.80;73.40
22416;DHT22;12204;50.600;4.608;2024-01-30T09:17:18;20.90;73.50
22416;DHT22;12204;50.600;4.608;2024-01-30T09:22:21;20.80;73.50
22416;DHT22;12204;50.600;4.608;2024-01-30T09:27:27;20.80;73.50
22416;DHT22;12204;50.600;4.608;2024-01-30T09:32:30;20.80;73.50
22416;DHT22;12204;50.600;4.608;2024-01-30T09:37:33;20.80;73.60
22416;DHT22;12204;50.600;4.608;2024-01-30T09:42:40;20.80;73.40
22416;DHT22;12204;50.600;4.608;2024-01-30T09:47:44;20.80;73.40
22416;DHT22;12204;50.600;4.608;2024-01-30T09:52:49;20.80;73.50
22416;DHT22;12204;50.600;4.608;2024-01-30T09:57:55;20.80;73.50
22416;DHT22;12204;50.600;4.608;2024-01-30T10:02:59;20.80;73.30
22416;DHT22;12204;50.600;4.608;2024-01-30T10:08:06;20.80;73.20
22416;DHT22;12204;50.600;4.608;2024-01-30T10:13:12;20.80;73.20
22416;DHT22;12204;50.600;4.608;2024-01-30T10:18:15;20.80;73.30
22416;DHT22;12204;50.600;4.608;2024-01-30T10:23:19;20.80;73.20
22416;DHT22;12204;50.600;4.608;2024-01-30T10:28:27;20.80;73.30
22416;DHT22;12204;50.600;4.608;2024-01-30T10:33:32;20.80;73.40
22416;DHT22;12204;50.600;4.608;2024-01-30T10:38:37;20.80;73.40
22416;DHT22;12204;50.600;4.608;2024-01-30T10:43:50;20.80;73.40
22416;DHT22;12204;50.600;4.608;2024-01-30T10:49:01;20.80;73.30
22416;DHT22;12204;50.600;4.608;2024-01-30T10:54:06;20.70;73.50
22416;DHT22;12204;50.600;4.608;2024-01-30T10:59:12;20.70;73.70
22416;DHT22;12204;50.600;4.608;2024-01-30T11:04:16;20.70;73.80
22416;DHT22;12204;50.600;4.608;2024-01-30T11:09:20;20.70;73.50
22416;DHT22;12204;50.600;4.608;2024-01-30T11:14:25;20.70;73.50
22416;DHT22;12204;50.600;4.608;2024-01-30T11:19:31;20.70;73.60
22416;DHT22;12204;50.600;4.608;2024-01-30T11:24:40;20.60;73.50
22416;DHT22;12204;50.600;4.608;2024-01-30T11:29:49;20.70;73.40
22416;DHT22;12204;50.600;4.608;2024-01-30T11:34:53;20.60;73.50
22416;DHT22;12204;50.600;4.608;2024-01-30T11:39:58;20.60;73.30
22416;DHT22;12204;50.600;4.608;2024-01-30T11:45:04;20.60;73.20
22416;DHT22;12204;50.600;4.608;2024-01-30T11:50:09;20.60;73.00
22416;DHT22;12204;50.600;4.608;2024-01-30T11:55:14;20.60;72.90
22416;DHT22;12204;50.600;4.608;2024-01-30T12:00:19;20.70;73.10
22416;DHT22;12204;50.600;4.608;2024-01-30T12:05:23;20.70;73.10
22416;DHT22;12204;50.600;4.608;2024-01-30T12:10:28;20.70;73.10
22416;DHT22;12204;50.600;4.608;2024-01-30T12:15:34;20.70;72.80
22416;DHT22;12204;50.600;4.608;2024-01-30T12:20:38;20.70;72.80
22416;DHT22;12204;50.600;4.608;2024-01-30T12:25:42;20.70;72.60
22416;DHT22;12204;50.600;4.608;2024-01-30T12:30:47;20.70;72.50
22416;DHT22;12204;50.600;4.608;2024-01-30T12:35:50;20.70;72.50
22416;DHT22;12204;50.600;4.608;2024-01-30T12:41:04;20.60;72.30
22416;DHT22;12204;50.600;4.608;2024-01-30T12:46:12;20.60;72.20
22416;DHT22;12204;50.600;4.608;2024-01-30T12:51:15;20.60;72.10
22416;DHT22;12204;50.600;4.608;2024-01-30T12:56:19;20.60;72.00
22416;DHT22;12204;50.600;4.608;2024-01-30T13:01:24;20.60;72.00
22416;DHT22;12204;50.600;4.608;2024-01-30T13:06:28;20.60;72.00
22416;DHT22;12204;50.600;4.608;2024-01-30T13:11:31;20.60;71.90
22416;DHT22;12204;50.600;4.608;2024-01-30T13:16:37;20.60;72.00
22416;DHT22;12204;50.600;4.608;2024-01-30T13:21:41;20.60;71.80
22416;DHT22;12204;50.600;4.608;2024-01-30T13:26:45;20.60;71.80
22416;DHT22;12204;50.600;4.608;2024-01-30T13:31:50;20.60;71.70
22416;DHT22;12204;50.600;4.608;2024-01-30T13:36:53;20.60;71.70
22416;DHT22;12204;50.600;4.608;2024-01-30T13:41:57;20.60;71.60
22416;DHT22;12204;50.600;4.608;2024-01-30T13:47:02;20.60;71.60
22416;DHT22;12204;50.600;4.608;2024-01-30T13:52:06;20.60;71.50
22416;DHT22;12204;50.600;4.608;2024-01-30T13:57:10;20.60;71.50
22416;DHT22;12204;50.600;4.608;2024-01-30T14:02:15;20.60;71.50
22416;DHT22;12204;50.600;4.608;2024-01-30T14:07:19;20.60;71.50
22416;DHT22;12204;50.600;4.608;2024-01-30T14:12:22;20.60;71.40
22416;DHT22;12204;50.600;4.608;2024-01-30T14:17:27;20.60;71.20
22416;DHT22;12204;50.600;4.608;2024-01-30T14:22:31;20.60;71.20
22416;DHT22;12204;50.600;4.608;2024-01-30T14:27:35;20.60;71.30
22416;DHT22;12204;50.600;4.608;2024-01-30T14:32:40;20.50;71.20
22416;DHT22;12204;50.600;4.608;2024-01-30T14:37:46;20.60;71.10
22416;DHT22;12204;50.600;4.608;2024-01-30T14:42:50;20.60;71.10
22416;DHT22;12204;50.600;4.608;2024-01-30T14:47:55;20.60;71.10
22416;DHT22;12204;50.600;4.608;2024-01-30T14:53:00;20.50;71.10
22416;DHT22;12204;50.600;4.608;2024-01-30T14:58:04;20.50;71.10
22416;DHT22;12204;50.600;4.608;2024-01-30T15:03:09;20.50;71.10
22416;DHT22;12204;50.600;4.608;2024-01-30T15:08:12;20.60;71.10
22416;DHT22;12204;50.600;4.608;2024-01-30T15:13:16;20.50;71.10
22416;DHT22;12204;50.600;4.608;2024-01-30T15:18:21;20.50;71.10
22416;DHT22;12204;50.600;4.608;2024-01-30T15:23:24;20.50;71.10
22416;DHT22;12204;50.600;4.608;2024-01-30T15:28:37;20.60;70.90
22416;DHT22;12204;50.600;4.608;2024-01-30T15:33:43;20.60;70.80
22416;DHT22;12204;50.600;4.608;2024-01-30T15:38:46;20.60;70.80
22416;DHT22;12204;50.600;4.608;2024-01-30T15:43:50;20.60;70.90
22416;DHT22;12204;50.600;4.608;2024-01-30T15:48:55;20.60;70.90
22416;DHT22;12204;50.600;4.608;2024-01-30T15:53:58;20.60;71.00
22416;DHT22;12204;50.600;4.608;2024-01-30T15:59:02;20.60;71.10
22416;DHT22;12204;50.600;4.608;2024-01-30T16:04:07;20.50;71.30
22416;DHT22;12204;50.600;4.608;2024-01-30T16:09:11;20.60;71.70
22416;DHT22;12204;50.600;4.608;2024-01-30T16:14:16;20.60;72.00
22416;DHT22;12204;50.600;4.608;2024-01-30T16:19:21;20.60;72.40
22416;DHT22;12204;50.600;4.608;2024-01-30T16:24:25;20.70;73.00
22416;DHT22;12204;50.600;4.608;2024-01-30T16:29:28;20.70;72.80
22416;DHT22;12204;50.600;4.608;2024-01-30T16:34:35;20.70;72.70
22416;DHT22;12204;50.600;4.608;2024-01-30T16:39:39;20.70;72.60
22416;DHT22;12204;50.600;4.608;2024-01-30T16:44:42;20.80;72.80
22416;DHT22;12204;50.600;4.608;2024-01-30T16:49:47;20.70;72.60
22416;DHT22;12204;50.600;4.608;2024-01-30T16:54:52;20.70;72.30
22416;DHT22;12204;50.600;4.608;2024-01-30T16:59:56;20.70;72.10
22416;DHT22;12204;50.600;4.608;2024-01-30T17:05:01;20.70;72.10
22416;DHT22;12204;50.600;4.608;2024-01-30T17:10:24;20.70;72.20
22416;DHT22;12204;50.600;4.608;2024-01-30T17:15:27;20.70;72.20
22416;DHT22;12204;50.600;4.608;2024-01-30T17:20:32;20.70;72.10
22416;DHT22;12204;50.600;4.608;2024-01-30T17:25:36;20.70;72.10
22416;DHT22;12204;50.600;4.608;2024-01-30T17:30:40;20.60;72.90
22416;DHT22;12204;50.600;4.608;2024-01-30T17:35:45;20.60;72.80
22416;DHT22;12204;50.600;4.608;2024-01-30T17:40:48;20.70;73.10
22416;DHT22;12204;50.600;4.608;2024-01-30T17:46:10;20.70;72.90
22416;DHT22;12204;50.600;4.608;2024-01-30T17:51:15;20.60;72.60
22416;DHT22;12204;50.600;4.608;2024-01-30T17:56:18;20.60;72.50
22416;DHT22;12204;50.600;4.608;2024-01-30T18:01:22;20.60;72.40
22416;DHT22;12204;50.600;4.608;2024-01-30T18:06:27;20.60;72.40
22416;DHT22;12204;50.600;4.608;2024-01-30T18:11:30;20.60;72.20
22416;DHT22;12204;50.600;4.608;2024-01-30T18:16:34;20.70;73.40
22416;DHT22;12204;50.600;4.608;2024-01-30T18:21:39;20.90;72.70
22416;DHT22;12204;50.600;4.608;2024-01-30T18:26:42;21.10;72.40
22416;DHT22;12204;50.600;4.608;2024-01-30T18:31:46;21.20;72.20
22416;DHT22;12204;50.600;4.608;2024-01-30T18:36:51;21.30;71.90
22416;DHT22;12204;50.600;4.608;2024-01-30T18:41:55;21.40;71.80
22416;DHT22;12204;50.600;4.608;2024-01-30T18:46:59;21.40;71.60
22416;DHT22;12204;50.600;4.608;2024-01-30T18:52:04;21.50;71.60
22416;DHT22;12204;50.600;4.608;2024-01-30T18:57:08;21.50;71.40
22416;DHT22;12204;50.600;4.608;2024-01-30T19:02:12;21.60;71.20
22416;DHT22;12204;50.600;4.608;2024-01-30T19:07:17;21.60;71.10
22416;DHT22;12204;50.600;4.608;2024-01-30T19:12:20;21.60;71.10
22416;DHT22;12204;50.600;4.608;2024-01-30T19:17:24;21.60;70.90
22416;DHT22;12204;50.600;4.608;2024-01-30T19:22:29;21.60;70.90
22416;DHT22;12204;50.600;4.608;2024-01-30T19:27:32;21.60;70.80
22416;DHT22;12204;50.600;4.608;2024-01-30T19:32:36;21.60;70.80
22416;DHT22;12204;50.600;4.608;2024-01-30T19:37:41;21.60;70.70
22416;DHT22;12204;50.600;4.608;2024-01-30T19:42:44;21.60;70.70
22416;DHT22;12204;50.600;4.608;2024-01-30T19:47:48;21.60;70.60
22416;DHT22;12204;50.600;4.608;2024-01-30T19:52:55;21.60;70.70
22416;DHT22;12204;50.600;4.608;2024-01-30T19:57:59;21.60;70.70
22416;DHT22;12204;50.600;4.608;2024-01-30T20:03:03;21.50;70.70
22416;DHT22;12204;50.600;4.608;2024-01-30T20:08:08;21.50;70.70
22416;DHT22;12204;50.600;4.608;2024-01-30T20:13:14;21.50;70.80
22416;DHT22;12204;50.600;4.608;2024-01-30T20:18:18;21.50;70.80
22416;DHT22;12204;50.600;4.608;2024-01-30T20:23:23;21.50;70.90
22416;DHT22;12204;50.600;4.608;2024-01-30T20:28:26;21.40;71.10
22416;DHT22;12204;50.600;4.608;2024-01-30T20:33:30;21.40;71.10
22416;DHT22;12204;50.600;4.608;2024-01-30T20:38:37;21.40;71.10
22416;DHT22;12204;50.600;4.608;2024-01-30T20:43:42;21.40;71.20
22416;DHT22;12204;50.600;4.608;2024-01-30T20:48:45;21.40;71.50
22416;DHT22;12204;50.600;4.608;2024-01-30T20:53:50;21.30;71.50
22416;DHT22;12204;50.600;4.608;2024-01-30T20:58:54;21.30;71.70
22416;DHT22;12204;50.600;4.608;2024-01-30T21:03:57;21.30;71.90
22416;DHT22;12204;50.600;4.608;2024-01-30T21:09:02;21.30;72.00
22416;DHT22;12204;50.600;4.608;2024-01-30T21:14:06;21.30;72.10
22416;DHT22;12204;50.600;4.608;2024-01-30T21:19:13;21.30;72.30
22416;DHT22;12204;50.600;4.608;2024-01-30T21:24:18;21.30;72.40
22416;DHT22;12204;50.600;4.608;2024-01-30T21:29:21;21.30;72.40
22416;DHT22;12204;50.600;4.608;2024-01-30T21:34:25;21.30;73.00
22416;DHT22;12204;50.600;4.608;2024-01-30T21:39:30;21.30;72.80
22416;DHT22;12204;50.600;4.608;2024-01-30T21:44:36;21.40;72.80
22416;DHT22;12204;50.600;4.608;2024-01-30T21:49:39;21.40;72.70
22416;DHT22;12204;50.600;4.608;2024-01-30T21:54:47;21.40;72.70
22416;DHT22;12204;50.600;4.608;2024-01-30T21:59:50;21.40;73.50
22416;DHT22;12204;50.600;4.608;2024-01-30T22:04:54;21.40;72.70
22416;DHT22;12204;50.600;4.608;2024-01-30T22:09:59;21.40;72.60
22416;DHT22;12204;50.600;4.608;2024-01-30T22:15:05;21.40;72.70
22416;DHT22;12204;50.600;4.608;2024-01-30T22:20:10;21.40;72.50
22416;DHT22;12204;50.600;4.608;2024-01-30T22:25:15;21.40;72.50
22416;DHT22;12204;50.600;4.608;2024-01-30T22:30:19;21.40;73.60
22416;DHT22;12204;50.600;4.608;2024-01-30T22:35:22;21.40;72.70
22416;DHT22;12204;50.600;4.608;2024-01-30T22:40:27;21.40;72.80
22416;DHT22;12204;50.600;4.608;2024-01-30T22:45:31;21.40;72.90
22416;DHT22;12204;50.600;4.608;2024-01-30T22:50:34;21.40;73.00
22416;DHT22;12204;50.600;4.608;2024-01-30T22:55:39;21.30;73.10
22416;DHT22;12204;50.600;4.608;2024-01-30T23:00:43;21.30;72.90
22416;DHT22;12204;50.600;4.608;2024-01-30T23:05:46;21.30;72.90
22416;DHT22;12204;50.600;4.608;2024-01-30T23:10:51;21.30;74.10
22416;DHT22;12204;50.600;4.608;2024-01-30T23:15:55;21.30;73.50
22416;DHT22;12204;50.600;4.608;2024-01-30T23:20:58;21.30;73.60
22416;DHT22;12204;50.600;4.608;2024-01-30T23:26:03;21.30;73.50
22416;DHT22;12204;50.600;4.608;2024-01-30T23:31:08;21.30;73.60
22416;DHT22;12204;50.600;4.608;2024-01-30T23:36:12;21.30;74.00
22416;DHT22;12204;50.600;4.608;2024-01-30T23:41:16;21.30;74.00
22416;DHT22;12204;50.600;4.608;2024-01-30T23:46:20;21.30;74.00
22416;DHT22;12204;50.600;4.608;2024-01-30T23:51:23;21.30;74.10
22416;DHT22;12204;50.600;4.608;2024-01-30T23:56:28;21.30;74.90
